createdAt,value
2019-05-03T00:02:45.411Z,99.90
2019-05-03T00:05:24.441Z,99.90
2019-05-03T00:07:55.183Z,99.90
2019-05-03T00:10:24.443Z,99.90
2019-05-03T00:12:53.166Z,99.90
2019-05-03T00:15:37.585Z,99.90
2019-05-03T00:18:06.329Z,99.90
2019-05-03T00:20:34.987Z,99.90
2019-05-03T00:23:03.650Z,99.90
2019-05-03T00:25:32.664Z,99.90
2019-05-03T00:28:01.987Z,99.90
2019-05-03T00:30:32.060Z,99.90
2019-05-03T00:33:02.714Z,99.90
2019-05-03T00:35:55.434Z,99.90
2019-05-03T00:38:24.077Z,99.90
2019-05-03T00:41:05.312Z,99.90
2019-05-03T00:43:34.332Z,99.90
2019-05-03T00:46:02.991Z,99.90
2019-05-03T00:48:32.678Z,99.90
2019-05-03T00:51:02.397Z,99.90
2019-05-03T00:53:31.899Z,99.90
2019-05-03T00:56:01.748Z,99.90
2019-05-03T00:58:31.823Z,99.90
2019-05-03T01:01:02.625Z,99.90
2019-05-03T01:03:32.526Z,99.90
2019-05-03T01:06:02.262Z,99.90
2019-05-03T01:08:32.638Z,99.90
2019-05-03T01:11:02.135Z,99.90
2019-05-03T01:13:32.044Z,99.90
2019-05-03T01:16:06.413Z,99.90
2019-05-03T01:18:35.051Z,99.90
2019-05-03T01:21:03.781Z,99.90
2019-05-03T01:23:32.644Z,99.90
2019-05-03T01:26:04.282Z,99.90
2019-05-03T01:28:32.987Z,99.90
2019-05-03T01:31:02.597Z,99.90
2019-05-03T01:33:32.162Z,99.90
2019-05-03T01:36:02.711Z,99.90
2019-05-03T01:38:31.977Z,99.90
2019-05-03T01:41:01.722Z,99.90
2019-05-03T01:43:31.801Z,99.90
2019-05-03T01:46:02.491Z,99.90
2019-05-03T01:48:42.027Z,99.90
2019-05-03T01:51:26.665Z,99.90
2019-05-03T01:53:55.391Z,99.90
2019-05-03T01:56:24.026Z,99.90
2019-05-03T01:58:52.656Z,99.90
2019-05-03T02:01:31.632Z,99.90
2019-05-03T02:04:07.175Z,99.90
2019-05-03T02:06:35.831Z,99.90
2019-05-03T02:09:06.953Z,99.90
2019-05-03T02:11:35.895Z,99.90
2019-05-03T02:14:05.197Z,99.90
2019-05-03T02:16:33.955Z,99.90
2019-05-03T02:19:02.855Z,99.90
2019-05-03T02:21:32.204Z,99.90
2019-05-03T02:24:02.569Z,99.90
2019-05-03T02:26:31.806Z,99.90
2019-05-03T02:29:01.840Z,99.90
2019-05-03T02:31:32.730Z,99.90
2019-05-03T02:34:03.501Z,99.90
2019-05-03T02:36:33.736Z,99.90
2019-05-03T02:39:02.875Z,99.90
2019-05-03T02:41:31.752Z,99.90
2019-05-03T02:44:00.476Z,99.90
2019-05-03T02:46:47.204Z,99.90
2019-05-03T02:49:38.033Z,99.90
2019-05-03T02:52:06.912Z,99.90
2019-05-03T02:54:35.722Z,99.90
2019-05-03T02:57:06.317Z,99.90
2019-05-03T02:59:34.863Z,99.90
2019-05-03T03:02:06.357Z,99.90
2019-05-03T03:04:35.362Z,99.90
2019-05-03T03:07:05.832Z,99.90
2019-05-03T03:09:35.995Z,99.90
2019-05-03T03:12:06.891Z,99.90
2019-05-03T03:14:36.455Z,99.90
2019-05-03T03:17:06.881Z,99.90
2019-05-03T03:19:38.119Z,99.90
2019-05-03T03:22:10.367Z,99.90
2019-05-03T03:24:45.525Z,99.90
2019-05-03T03:27:16.945Z,99.90
2019-05-03T03:29:49.995Z,99.90
2019-05-03T03:32:29.168Z,99.90
2019-05-03T03:35:11.000Z,99.90
2019-05-03T03:37:37.639Z,99.90
2019-05-03T03:40:06.735Z,99.90
2019-05-03T03:42:38.083Z,99.90
2019-05-03T03:45:07.345Z,99.90
2019-05-03T03:47:38.630Z,99.90
2019-05-03T03:50:08.781Z,99.90
2019-05-03T03:52:40.042Z,99.90
2019-05-03T03:55:09.727Z,99.90
2019-05-03T03:57:38.458Z,99.90
2019-05-03T04:00:08.725Z,99.90
2019-05-03T04:02:45.863Z,99.90
2019-05-03T04:05:15.973Z,99.90
2019-05-03T04:07:46.451Z,99.90
2019-05-03T04:10:15.750Z,99.90
2019-05-03T04:12:46.293Z,99.90
2019-05-03T04:15:26.120Z,99.90
2019-05-03T04:18:13.128Z,99.90
2019-05-03T04:20:41.851Z,99.90
2019-05-03T04:23:11.391Z,99.90
2019-05-03T04:25:40.830Z,99.90
2019-05-03T04:28:09.879Z,99.90
2019-05-03T04:30:38.615Z,99.90
2019-05-03T04:33:07.357Z,99.90
2019-05-03T04:35:36.563Z,99.90
2019-05-03T04:38:05.750Z,99.90
2019-05-03T04:40:35.810Z,99.90
2019-05-03T04:43:06.127Z,99.90
2019-05-03T04:45:36.750Z,99.90
2019-05-03T04:48:06.186Z,99.90
2019-05-03T04:50:36.687Z,99.90
2019-05-03T04:53:05.905Z,99.90
2019-05-03T04:55:36.263Z,99.90
2019-05-03T04:58:05.540Z,99.90
2019-05-03T05:00:35.930Z,99.90
2019-05-03T05:03:05.945Z,99.90
2019-05-03T05:05:36.393Z,99.90
2019-05-03T05:08:06.008Z,99.90
2019-05-03T05:10:36.315Z,99.90
2019-05-03T05:13:05.628Z,99.90
2019-05-03T05:15:35.430Z,99.90
2019-05-03T05:18:16.161Z,99.90
2019-05-03T05:21:19.232Z,99.90
2019-05-03T05:23:59.251Z,99.90
2019-05-03T05:26:35.215Z,99.90
2019-05-03T05:29:07.407Z,99.90
2019-05-03T05:31:36.076Z,99.90
2019-05-03T05:34:05.712Z,99.90
2019-05-03T05:36:35.722Z,99.90
2019-05-03T05:39:05.937Z,99.90
2019-05-03T05:41:34.811Z,99.90
2019-05-03T05:44:05.400Z,99.90
2019-05-03T05:46:40.771Z,99.90
2019-05-03T05:49:12.147Z,99.90
2019-05-03T05:51:41.147Z,99.90
2019-05-03T05:54:09.804Z,99.90
2019-05-03T05:56:50.170Z,99.90
2019-05-03T05:59:37.929Z,99.90
2019-05-03T06:02:09.179Z,99.90
2019-05-03T06:04:37.835Z,99.90
2019-05-03T06:07:44.394Z,99.90
2019-05-03T06:10:34.807Z,99.90
2019-05-03T06:13:09.695Z,99.90
2019-05-03T06:16:05.047Z,99.90
2019-05-03T06:18:41.351Z,99.90
2019-05-03T06:21:18.422Z,99.90
2019-05-03T06:23:53.371Z,99.90
2019-05-03T06:26:59.427Z,99.90
2019-05-03T06:29:28.099Z,99.90
2019-05-03T06:32:05.451Z,99.90
2019-05-03T06:34:35.457Z,99.90
2019-05-03T06:37:07.916Z,99.90
2019-05-03T06:39:36.618Z,99.90
2019-05-03T06:42:05.324Z,99.90
2019-05-03T06:44:34.928Z,99.90
2019-05-03T06:47:09.103Z,99.90
2019-05-03T06:49:34.619Z,99.90
2019-05-03T06:52:03.549Z,99.90
2019-05-03T06:54:34.247Z,99.90
2019-05-03T06:57:05.682Z,99.90
2019-05-03T06:59:47.650Z,99.90
2019-05-03T07:02:28.581Z,99.90
2019-05-03T07:04:58.343Z,99.90
2019-05-03T07:07:48.338Z,99.90
2019-05-03T07:10:24.958Z,99.90
2019-05-03T07:13:00.621Z,99.90
2019-05-03T07:15:29.736Z,99.90
2019-05-03T07:17:58.488Z,99.90
2019-05-03T07:20:27.112Z,99.90
2019-05-03T07:22:56.117Z,99.90
2019-05-03T07:25:25.732Z,99.90
2019-05-03T07:27:55.534Z,99.90
2019-05-03T07:30:24.957Z,99.90
2019-05-03T07:33:01.611Z,99.90
2019-05-03T07:35:30.576Z,99.90
2019-05-03T07:37:59.219Z,99.90
2019-05-03T07:40:27.973Z,99.90
2019-05-03T07:42:56.624Z,99.90
2019-05-03T07:45:25.879Z,99.90
2019-05-03T07:47:55.777Z,99.90
2019-05-03T07:50:25.887Z,99.90
2019-05-03T07:52:55.814Z,99.90
2019-05-03T07:55:45.741Z,99.90
2019-05-03T07:58:18.035Z,99.90
2019-05-03T08:00:47.802Z,99.90
2019-05-03T08:03:17.967Z,99.90
2019-05-03T08:05:46.921Z,99.90
2019-05-03T08:08:15.567Z,99.90
2019-05-03T08:10:44.969Z,99.90
2019-05-03T08:13:15.116Z,99.90
2019-05-03T08:15:45.157Z,99.90
2019-05-03T08:18:15.288Z,99.90
2019-05-03T08:20:45.129Z,99.90
2019-05-03T08:23:26.813Z,99.90
2019-05-03T08:25:44.948Z,99.90
2019-05-03T08:28:14.643Z,99.90
2019-05-03T08:31:01.330Z,99.90
2019-05-03T08:34:04.923Z,99.90
2019-05-03T08:36:55.878Z,99.90
2019-05-03T08:39:25.420Z,99.90
2019-05-03T08:41:57.337Z,99.90
2019-05-03T08:44:26.152Z,99.90
2019-05-03T08:46:56.378Z,99.90
2019-05-03T08:49:25.569Z,99.90
2019-05-03T08:51:55.042Z,99.90
2019-05-03T08:54:25.554Z,99.90
2019-05-03T08:56:55.715Z,98.60
2019-05-03T08:59:29.794Z,99.90
2019-05-03T09:01:55.246Z,99.90
2019-05-03T09:04:36.356Z,99.90
2019-05-03T09:06:55.102Z,99.90
2019-05-03T09:09:30.131Z,99.90
2019-05-03T09:11:58.878Z,99.90
2019-05-03T09:14:38.811Z,99.90
2019-05-03T09:16:58.234Z,99.90
2019-05-03T09:19:26.870Z,99.90
2019-05-03T09:21:56.171Z,99.90
2019-05-03T09:24:24.807Z,99.90
2019-05-03T09:26:55.429Z,99.90
2019-05-03T09:29:25.504Z,99.90
2019-05-03T09:31:55.414Z,99.90
2019-05-03T09:34:25.727Z,99.90
2019-05-03T09:36:55.328Z,99.90
2019-05-03T09:39:24.621Z,99.90
2019-05-03T09:41:55.464Z,99.90
2019-05-03T09:44:24.579Z,99.90
2019-05-03T09:46:54.954Z,99.30
2019-05-03T09:49:25.308Z,99.90
2019-05-03T09:51:54.932Z,99.90
2019-05-03T09:54:35.580Z,99.90
2019-05-03T09:57:05.856Z,99.90
2019-05-03T09:59:35.116Z,99.90
2019-05-03T10:02:04.857Z,99.90
2019-05-03T10:04:33.767Z,99.90
2019-05-03T10:07:02.737Z,99.60
2019-05-03T10:09:31.375Z,99.90
2019-05-03T10:12:01.183Z,99.10
2019-05-03T10:14:29.822Z,99.90
2019-05-03T10:17:07.585Z,99.90
2019-05-03T10:19:40.075Z,99.90
2019-05-03T10:22:06.981Z,99.20
2019-05-03T10:24:35.776Z,98.60
2019-05-03T10:27:05.614Z,99.90
2019-05-03T10:29:34.538Z,97.10
2019-05-03T10:32:11.594Z,97.00
2019-05-03T10:34:42.520Z,96.30
2019-05-03T10:37:29.917Z,97.20
2019-05-03T10:39:59.350Z,99.30
2019-05-03T10:42:28.281Z,99.90
2019-05-03T10:44:56.915Z,99.90
2019-05-03T10:47:25.637Z,99.90
2019-05-03T10:49:55.054Z,99.90
2019-05-03T10:52:28.065Z,99.40
2019-05-03T10:54:56.748Z,98.90
2019-05-03T10:57:26.587Z,97.20
2019-05-03T10:59:55.564Z,96.20
2019-05-03T11:02:56.030Z,95.80
2019-05-03T11:05:24.679Z,94.30
2019-05-03T11:07:55.486Z,95.10
2019-05-03T11:10:25.285Z,95.70
2019-05-03T11:12:54.828Z,95.40
2019-05-03T11:15:25.689Z,95.60
2019-05-03T11:17:54.879Z,96.40
2019-05-03T11:20:37.119Z,95.60
2019-05-03T11:23:07.222Z,96.40
2019-05-03T11:25:36.185Z,98.40
2019-05-03T11:28:12.277Z,97.60
2019-05-03T11:30:52.363Z,96.00
2019-05-03T11:33:19.335Z,96.10
2019-05-03T11:35:52.620Z,97.40
2019-05-03T11:38:30.090Z,97.00
2019-05-03T11:40:58.835Z,98.00
2019-05-03T11:43:27.469Z,94.90
2019-05-03T11:45:56.135Z,95.00
2019-05-03T11:48:25.256Z,94.50
2019-05-03T11:50:54.668Z,95.20
2019-05-03T11:53:25.196Z,95.70
2019-05-03T11:55:55.259Z,96.20
2019-05-03T11:58:27.131Z,97.70
2019-05-03T12:01:14.951Z,97.90
2019-05-03T12:03:39.010Z,98.70
2019-05-03T12:06:07.683Z,98.80
2019-05-03T12:08:36.462Z,98.50
2019-05-03T12:11:05.866Z,98.70
2019-05-03T12:13:34.589Z,99.50
2019-05-03T12:16:15.052Z,99.50
2019-05-03T12:18:46.046Z,98.80
2019-05-03T12:21:07.940Z,98.60
2019-05-03T12:23:36.579Z,98.90
2019-05-03T12:26:10.990Z,97.60
2019-05-03T12:28:35.847Z,99.60
2019-05-03T12:31:05.033Z,99.00
2019-05-03T12:33:35.388Z,99.80
2019-05-03T12:36:05.354Z,99.90
2019-05-03T12:38:35.059Z,98.70
2019-05-03T12:41:05.528Z,98.70
2019-05-03T12:43:34.504Z,97.30
2019-05-03T12:46:04.946Z,98.00
2019-05-03T12:48:35.378Z,96.30
2019-05-03T12:51:06.272Z,95.10
2019-05-03T12:53:35.348Z,95.10
2019-05-03T12:56:11.373Z,96.00
2019-05-03T12:59:05.578Z,96.80
2019-05-03T13:01:47.887Z,97.10
2019-05-03T13:04:19.931Z,98.30
2019-05-03T13:06:54.931Z,99.40
2019-05-03T13:09:25.220Z,98.60
2019-05-03T13:11:58.977Z,99.60
2019-05-03T13:14:26.198Z,99.70
2019-05-03T13:16:55.197Z,99.80
2019-05-03T13:19:25.765Z,99.90
2019-05-03T13:21:55.586Z,99.90
2019-05-03T13:24:25.988Z,99.90
2019-05-03T13:26:54.982Z,99.90
2019-05-03T13:29:25.609Z,99.90
2019-05-03T13:32:01.279Z,99.90
2019-05-03T13:34:24.844Z,99.90
2019-05-03T13:36:54.942Z,99.90
2019-05-03T13:39:26.279Z,99.90
2019-05-03T13:41:54.971Z,99.90
2019-05-03T13:44:24.794Z,99.90
2019-05-03T13:46:55.224Z,99.90
2019-05-03T13:49:26.222Z,99.90
2019-05-03T13:51:54.632Z,99.90
2019-05-03T13:54:25.385Z,99.90
2019-05-03T13:56:55.405Z,99.90
2019-05-03T13:59:24.665Z,99.90
2019-05-03T14:01:54.570Z,99.90
2019-05-03T14:04:23.403Z,99.90
2019-05-03T14:06:52.069Z,99.90
2019-05-03T14:09:20.805Z,99.90
2019-05-03T14:11:49.498Z,99.90
2019-05-03T14:14:18.453Z,99.90
2019-05-03T14:16:47.097Z,99.90
2019-05-03T14:19:21.797Z,99.90
2019-05-03T14:21:54.666Z,99.90
2019-05-03T14:24:24.589Z,99.90
2019-05-03T14:26:55.099Z,99.90
2019-05-03T14:29:25.247Z,99.90
2019-05-03T14:31:54.614Z,99.90
2019-05-03T14:34:25.522Z,99.90
2019-05-03T14:36:55.448Z,99.90
2019-05-03T14:39:25.323Z,99.90
2019-05-03T14:41:55.569Z,99.90
2019-05-03T14:44:25.241Z,99.90
2019-05-03T14:46:58.849Z,99.90
2019-05-03T14:49:25.460Z,99.90
2019-05-03T14:51:56.673Z,99.90
2019-05-03T14:54:26.600Z,99.90
2019-05-03T14:57:02.522Z,99.90
2019-05-03T14:59:49.211Z,99.90
2019-05-03T15:02:42.515Z,99.90
2019-05-03T15:05:01.075Z,99.90
2019-05-03T15:07:30.011Z,99.90
2019-05-03T15:09:58.649Z,99.90
2019-05-03T15:12:27.289Z,99.90
2019-05-03T15:14:55.963Z,99.90
2019-05-03T15:17:26.660Z,99.90
2019-05-03T15:19:55.446Z,99.90
2019-05-03T15:22:25.324Z,99.90
2019-05-03T15:24:54.670Z,99.90
2019-05-03T15:27:24.763Z,99.90
2019-05-03T15:29:55.559Z,99.90
2019-05-03T15:32:24.216Z,99.90
2019-05-03T15:34:55.165Z,99.90
2019-05-03T15:37:25.390Z,99.90
2019-05-03T15:39:54.663Z,99.90
2019-05-03T15:42:27.759Z,99.90
2019-05-03T15:45:10.060Z,99.90
2019-05-03T15:48:00.702Z,99.90
2019-05-03T15:50:29.604Z,99.90
2019-05-03T15:52:58.342Z,99.90
2019-05-03T15:55:27.289Z,99.90
2019-05-03T15:57:55.938Z,99.90
2019-05-03T16:00:24.685Z,99.90
2019-05-03T16:02:54.761Z,99.90
2019-05-03T16:05:25.123Z,99.90
2019-05-03T16:07:55.270Z,99.90
2019-05-03T16:10:25.462Z,99.90
2019-05-03T16:12:54.720Z,99.90
2019-05-03T16:15:24.642Z,99.90
2019-05-03T16:17:54.791Z,99.90
2019-05-03T16:20:25.150Z,99.90
2019-05-03T16:22:54.569Z,99.90
2019-05-03T16:25:25.162Z,99.90
2019-05-03T16:28:04.826Z,99.90
2019-05-03T16:30:40.817Z,99.90
2019-05-03T16:33:22.449Z,99.90
2019-05-03T16:35:40.291Z,99.90
2019-05-03T16:38:09.358Z,99.90
2019-05-03T16:40:38.134Z,99.90
2019-05-03T16:43:07.312Z,99.90
2019-05-03T16:45:36.048Z,99.90
2019-05-03T16:48:04.877Z,99.90
2019-05-03T16:50:34.555Z,99.90
2019-05-03T16:53:05.433Z,99.90
2019-05-03T16:55:35.172Z,99.90
2019-05-03T16:58:04.083Z,99.90
2019-05-03T17:00:32.751Z,99.90
2019-05-03T17:03:01.721Z,99.90
2019-05-03T17:05:49.544Z,99.90
2019-05-03T17:08:40.559Z,99.90
2019-05-03T17:11:11.394Z,99.90
2019-05-03T17:13:42.318Z,99.90
2019-05-03T17:16:11.226Z,99.90
2019-05-03T17:18:40.840Z,99.90
2019-05-03T17:21:09.497Z,99.90
2019-05-03T17:23:38.733Z,99.90
2019-05-03T17:26:07.649Z,99.90
2019-05-03T17:28:36.313Z,99.90
2019-05-03T17:31:05.722Z,99.90
2019-05-03T17:33:34.868Z,99.90
2019-05-03T17:36:05.086Z,99.90
2019-05-03T17:38:35.218Z,99.90
2019-05-03T17:41:14.894Z,99.90
2019-05-03T17:43:51.290Z,99.90
2019-05-03T17:46:22.709Z,99.90
2019-05-03T17:48:54.709Z,99.90
2019-05-03T17:51:45.579Z,99.90
2019-05-03T17:54:33.542Z,99.90
2019-05-03T17:57:07.468Z,99.90
2019-05-03T17:59:46.475Z,99.90
2019-05-03T18:02:25.680Z,99.90
2019-05-03T18:05:14.651Z,99.90
2019-05-03T18:08:01.785Z,99.90
2019-05-03T18:10:30.618Z,99.90
2019-05-03T18:12:59.266Z,99.90
2019-05-03T18:15:31.140Z,99.90
2019-05-03T18:17:59.897Z,99.90
2019-05-03T18:20:28.703Z,99.90
2019-05-03T18:22:57.492Z,99.90
2019-05-03T18:25:26.320Z,99.90
2019-05-03T18:27:55.373Z,99.90
2019-05-03T18:30:24.385Z,99.90
2019-05-03T18:32:54.418Z,99.90
2019-05-03T18:35:23.283Z,99.90
2019-05-03T18:37:58.866Z,99.90
2019-05-03T18:40:28.182Z,99.90
2019-05-03T18:43:04.497Z,99.90
2019-05-03T18:45:51.754Z,99.90
2019-05-03T18:48:20.471Z,99.90
2019-05-03T18:50:49.316Z,99.90
2019-05-03T18:53:19.485Z,99.90
2019-05-03T18:55:48.783Z,99.90
2019-05-03T18:58:17.637Z,99.90
2019-05-03T19:00:46.375Z,99.90
2019-05-03T19:03:15.325Z,99.90
2019-05-03T19:05:46.115Z,99.90
2019-05-03T19:08:34.995Z,99.90
2019-05-03T19:11:11.843Z,99.90
2019-05-03T19:13:48.131Z,99.90
2019-05-03T19:16:35.173Z,99.90
2019-05-03T19:19:05.315Z,99.90
2019-05-03T19:21:35.035Z,99.90
2019-05-03T19:24:04.817Z,99.90
2019-05-03T19:26:35.271Z,99.90
2019-05-03T19:29:04.528Z,99.90
2019-05-03T19:31:35.628Z,99.90
2019-05-03T19:34:06.034Z,99.90
2019-05-03T19:36:37.190Z,99.90
2019-05-03T19:39:07.070Z,99.90
2019-05-03T19:41:35.828Z,99.90
2019-05-03T19:44:04.532Z,99.90
2019-05-03T19:46:34.995Z,99.90
2019-05-03T19:49:05.012Z,99.90
2019-05-03T19:51:34.380Z,99.90
2019-05-03T19:54:05.422Z,99.90
2019-05-03T19:56:34.234Z,99.90
2019-05-03T19:59:07.168Z,99.90
2019-05-03T20:01:51.501Z,99.90
2019-05-03T20:04:37.804Z,99.90
2019-05-03T20:07:18.252Z,99.90
2019-05-03T20:09:47.183Z,99.90
2019-05-03T20:12:16.143Z,99.90
2019-05-03T20:14:45.057Z,99.90
2019-05-03T20:17:14.812Z,99.90
2019-05-03T20:19:45.167Z,99.90
2019-05-03T20:22:15.144Z,99.90
2019-05-03T20:24:44.746Z,99.90
2019-05-03T20:27:15.150Z,99.90
2019-05-03T20:29:46.135Z,99.90
2019-05-03T20:32:15.921Z,99.90
2019-05-03T20:34:45.124Z,99.90
2019-05-03T20:37:14.700Z,99.90
2019-05-03T20:39:43.531Z,99.90
2019-05-03T20:42:15.344Z,99.90
2019-05-03T20:44:54.473Z,99.90
2019-05-03T20:47:30.187Z,99.90
2019-05-03T20:50:15.488Z,99.90
2019-05-03T20:52:44.734Z,99.90
2019-05-03T20:55:15.501Z,99.90
2019-05-03T20:57:44.525Z,99.90
2019-05-03T21:00:15.896Z,99.90
2019-05-03T21:02:51.645Z,99.90
2019-05-03T21:05:27.188Z,99.90
2019-05-03T21:07:45.702Z,99.90
2019-05-03T21:10:15.660Z,99.90
2019-05-03T21:12:44.807Z,99.90
2019-05-03T21:15:24.684Z,99.90
2019-05-03T21:18:07.190Z,99.90
2019-05-03T21:20:45.662Z,99.90
2019-05-03T21:23:16.321Z,99.90
2019-05-03T21:26:09.072Z,99.90
2019-05-03T21:28:31.748Z,99.90
2019-05-03T21:31:00.395Z,99.90
2019-05-03T21:33:29.151Z,99.90
2019-05-03T21:35:57.791Z,99.90
2019-05-03T21:38:26.601Z,99.90
2019-05-03T21:40:55.444Z,99.90
2019-05-03T21:43:25.687Z,99.90
2019-05-03T21:46:07.930Z,99.90
2019-05-03T21:49:08.230Z,99.90
2019-05-03T21:51:36.865Z,99.90
2019-05-03T21:55:58.475Z,99.90
2019-05-03T21:58:27.490Z,99.90
2019-05-03T22:01:05.101Z,99.90
2019-05-03T22:03:35.396Z,99.90
2019-05-03T22:06:04.259Z,99.90
2019-05-03T22:08:34.938Z,99.90
2019-05-03T22:11:05.253Z,99.90
2019-05-03T22:13:34.931Z,99.90
2019-05-03T22:16:15.389Z,99.90
2019-05-03T22:18:45.463Z,99.90
2019-05-03T22:21:29.717Z,99.90
2019-05-03T22:24:11.303Z,99.90
2019-05-03T22:26:55.475Z,99.90
2019-05-03T22:29:25.459Z,99.90
2019-05-03T22:31:54.875Z,99.90
2019-05-03T22:34:25.730Z,99.90
2019-05-03T22:36:54.825Z,99.90
2019-05-03T22:39:25.054Z,99.90
2019-05-03T22:41:54.303Z,99.90
2019-05-03T22:44:25.136Z,99.90
2019-05-03T22:46:55.100Z,99.90
2019-05-03T22:49:25.958Z,99.90
2019-05-03T22:51:54.904Z,99.90
2019-05-03T22:54:24.532Z,99.90
2019-05-03T22:56:55.243Z,99.90
2019-05-03T22:59:25.158Z,99.90
2019-05-03T23:01:54.681Z,99.90
2019-05-03T23:04:25.259Z,99.90
2019-05-03T23:06:55.605Z,99.90
2019-05-03T23:09:25.026Z,99.90
2019-05-03T23:11:55.200Z,99.90
2019-05-03T23:14:25.416Z,99.90
2019-05-03T23:16:54.631Z,99.90
2019-05-03T23:19:23.591Z,99.90
2019-05-03T23:22:04.854Z,99.90
2019-05-03T23:24:35.215Z,99.90
2019-05-03T23:27:05.086Z,99.90
2019-05-03T23:29:34.905Z,99.90
2019-05-03T23:32:04.697Z,99.90
2019-05-03T23:34:35.097Z,99.90
2019-05-03T23:37:05.510Z,99.90
2019-05-03T23:39:34.405Z,99.90
2019-05-03T23:42:04.941Z,99.90
2019-05-03T23:44:35.198Z,99.90
2019-05-03T23:47:25.245Z,99.90
2019-05-03T23:49:55.401Z,99.90
2019-05-03T23:52:35.441Z,99.90
2019-05-03T23:55:10.080Z,99.90
2019-05-03T23:59:59.420Z,99.90
